Time;durP1;ratioP1;P1;durP2;ratioP2;P2;SDS_P1;SDS_P2;PMS_P1;PMS_P2;Temp;Humidity;BMP_temperature;BMP_pressure;BME280_temperature;BME280_humidity;BME280_pressure;Samples;Min_cycle;Max_cycle;Signal;HPM_P1;HPM_P2
2023/12/08 00:02:33;;;;;;;22.58;17.55;;;;;;;;;;10031631;28;20066;-72
2023/12/08 00:07:25;;;;;;;19.70;17.27;;;;;;;;;;10032444;28;20104;-73
2023/12/08 00:12:17;;;;;;;24.23;19.77;;;;;;;;;;10032140;28;20478;-72
2023/12/08 00:17:09;;;;;;;36.00;25.92;;;;;;;;;;10027648;28;20042;-72
2023/12/08 00:22:02;;;;;;;33.22;25.80;;;;;;;;;;10022886;28;20049;-72
2023/12/08 00:26:53;;;;;;;38.80;30.25;;;;;;;;;;10031805;28;20048;-72
2023/12/08 00:31:46;;;;;;;19.50;16.45;;;;;;;;;;10031376;28;20050;-72
2023/12/08 00:36:40;;;;;;;18.55;16.55;;;;;;;;;;10031170;28;20057;-71
2023/12/08 00:41:32;;;;;;;16.45;13.50;;;;;;;;;;10031200;28;20049;-72
2023/12/08 00:46:24;;;;;;;34.10;23.55;;;;;;;;;;10031091;28;20477;-72
2023/12/08 00:51:16;;;;;;;19.17;16.73;;;;;;;;;;10030003;28;20064;-71
2023/12/08 00:56:08;;;;;;;22.92;18.58;;;;;;;;;;10030621;28;20338;-72
2023/12/08 01:01:00;;;;;;;23.90;19.30;;;;;;;;;;10030607;28;20042;-72
2023/12/08 01:05:52;;;;;;;31.80;25.58;;;;;;;;;;10029397;28;20041;-72
2023/12/08 01:10:44;;;;;;;25.55;21.73;;;;;;;;;;10029389;28;20137;-72
2023/12/08 01:15:36;;;;;;;20.05;17.27;;;;;;;;;;10029182;28;20077;-72
2023/12/08 01:20:28;;;;;;;18.50;16.48;;;;;;;;;;10029572;28;20034;-72
2023/12/08 01:25:20;;;;;;;16.10;12.40;;;;;;;;;;10029320;28;20057;-72
2023/12/08 01:30:12;;;;;;;12.40;11.10;;;;;;;;;;10028973;28;20136;-72
2023/12/08 01:35:04;;;;;;;14.60;13.10;;;;;;;;;;10029418;28;20373;-72
2023/12/08 01:39:56;;;;;;;15.68;12.93;;;;;;;;;;10028787;28;20103;-72
2023/12/08 01:44:50;;;;;;;20.58;15.20;;;;;;;;;;10028633;28;20073;-72
2023/12/08 01:49:42;;;;;;;24.58;16.88;;;;;;;;;;10026850;28;20149;-72
2023/12/08 01:54:34;;;;;;;19.08;17.13;;;;;;;;;;10025303;28;20037;-72
2023/12/08 01:59:27;;;;;;;14.48;12.30;;;;;;;;;;10022207;28;20103;-72
2023/12/08 02:04:19;;;;;;;17.50;15.57;;;;;;;;;;10025174;28;20496;-72
2023/12/08 02:09:12;;;;;;;18.55;16.63;;;;;;;;;;10023666;28;20054;-72
2023/12/08 02:14:04;;;;;;;21.00;15.90;;;;;;;;;;10023844;28;20049;-72
2023/12/08 02:18:56;;;;;;;7.30;6.35;;;;;;;;;;10022462;28;20476;-72
2023/12/08 02:23:49;;;;;;;7.93;6.93;;;;;;;;;;10022822;28;20042;-72
2023/12/08 02:28:41;;;;;;;8.15;7.22;;;;;;;;;;10025346;28;20045;-72
2023/12/08 02:33:33;;;;;;;9.13;8.20;;;;;;;;;;10022414;28;20041;-72
2023/12/08 02:38:26;;;;;;;10.05;6.50;;;;;;;;;;10001426;28;20042;-72
2023/12/08 02:43:17;;;;;;;5.75;5.07;;;;;;;;;;10026783;28;20053;-73
2023/12/08 02:48:09;;;;;;;6.40;5.68;;;;;;;;;;10026305;28;20038;-72
2023/12/08 02:53:01;;;;;;;4.93;4.45;;;;;;;;;;10017097;28;20060;-72
2023/12/08 02:57:53;;;;;;;4.72;4.30;;;;;;;;;;10026732;28;20045;-72
2023/12/08 03:02:45;;;;;;;4.63;3.63;;;;;;;;;;10016118;28;20457;-72
2023/12/08 03:07:37;;;;;;;4.13;3.78;;;;;;;;;;10022719;28;20368;-72
2023/12/08 03:12:29;;;;;;;8.00;4.75;;;;;;;;;;10022876;28;20088;-72
2023/12/08 03:17:21;;;;;;;7.90;6.55;;;;;;;;;;10020758;28;20137;-73
2023/12/08 03:22:13;;;;;;;9.88;5.20;;;;;;;;;;10022769;28;20109;-73
2023/12/08 03:27:05;;;;;;;6.75;5.82;;;;;;;;;;10023310;28;20092;-72
2023/12/08 03:31:56;;;;;;;11.27;7.90;;;;;;;;;;10028230;28;20362;-72
2023/12/08 03:36:48;;;;;;;9.80;7.55;;;;;;;;;;10033743;28;20100;-72
2023/12/08 03:41:40;;;;;;;10.43;7.40;;;;;;;;;;10033183;28;20117;-72
2023/12/08 03:46:32;;;;;;;9.95;8.95;;;;;;;;;;10029488;28;20061;-73
2023/12/08 03:51:24;;;;;;;10.63;9.30;;;;;;;;;;10030873;28;20041;-72
2023/12/08 03:56:15;;;;;;;14.63;11.25;;;;;;;;;;10030160;28;20038;-73
2023/12/08 04:01:07;;;;;;;14.23;11.80;;;;;;;;;;10024680;28;20085;-72
2023/12/08 04:06:01;;;;;;;13.52;11.45;;;;;;;;;;10025041;28;20038;-73
2023/12/08 04:10:53;;;;;;;14.55;12.57;;;;;;;;;;10023117;28;20499;-72
2023/12/08 04:15:45;;;;;;;12.60;10.90;;;;;;;;;;10028597;28;20877;-72
2023/12/08 04:20:37;;;;;;;12.75;10.40;;;;;;;;;;10028806;28;20062;-73
2023/12/08 04:25:29;;;;;;;8.98;8.07;;;;;;;;;;10028339;28;20124;-72
2023/12/08 04:30:20;;;;;;;9.20;8.30;;;;;;;;;;10028056;28;20065;-72
2023/12/08 04:35:12;;;;;;;11.38;10.18;;;;;;;;;;10026491;28;20068;-72
2023/12/08 04:40:05;;;;;;;10.30;9.05;;;;;;;;;;10011855;28;20145;-73
2023/12/08 04:44:56;;;;;;;14.07;11.85;;;;;;;;;;10009517;28;20049;-73
2023/12/08 04:49:48;;;;;;;14.30;11.85;;;;;;;;;;10009267;28;20481;-73
2023/12/08 04:54:40;;;;;;;12.00;10.77;;;;;;;;;;10009162;28;20061;-73
2023/12/08 04:59:32;;;;;;;13.52;10.65;;;;;;;;;;10009468;28;20042;-72
2023/12/08 05:04:24;;;;;;;14.27;11.60;;;;;;;;;;10009107;28;20598;-73
2023/12/08 05:09:16;;;;;;;16.58;12.60;;;;;;;;;;10024735;28;20053;-73
2023/12/08 05:14:08;;;;;;;16.45;14.65;;;;;;;;;;10029710;28;20046;-73
2023/12/08 05:19:00;;;;;;;17.23;15.32;;;;;;;;;;10029598;28;20065;-73
2023/12/08 05:23:52;;;;;;;18.23;15.18;;;;;;;;;;10029595;28;20042;-73
2023/12/08 05:28:44;;;;;;;16.02;14.32;;;;;;;;;;10025096;28;20345;-73
2023/12/08 05:33:36;;;;;;;30.67;21.13;;;;;;;;;;10021376;28;20378;-73
2023/12/08 05:38:29;;;;;;;22.50;16.45;;;;;;;;;;10032283;28;20064;-73
2023/12/08 05:43:21;;;;;;;18.73;16.75;;;;;;;;;;10024524;28;20045;-73
2023/12/08 05:48:13;;;;;;;19.13;17.13;;;;;;;;;;10027918;28;20464;-73
2023/12/08 05:53:05;;;;;;;24.27;19.42;;;;;;;;;;10042628;28;20038;-73
2023/12/08 05:57:57;;;;;;;19.60;17.45;;;;;;;;;;10045041;28;20132;-73
2023/12/08 06:02:49;;;;;;;20.55;17.73;;;;;;;;;;10037093;28;20475;-73
2023/12/08 06:07:41;;;;;;;19.75;17.20;;;;;;;;;;10019752;28;20129;-73
2023/12/08 06:12:36;;;;;;;23.38;19.73;;;;;;;;;;10027216;28;20046;-73
2023/12/08 06:17:28;;;;;;;27.10;19.33;;;;;;;;;;10027403;28;20111;-73
2023/12/08 06:22:20;;;;;;;21.25;16.25;;;;;;;;;;10027071;28;20056;-73
2023/12/08 06:27:12;;;;;;;22.08;17.42;;;;;;;;;;10027941;28;20049;-73
2023/12/08 06:32:05;;;;;;;17.65;14.85;;;;;;;;;;10026762;28;20053;-73
2023/12/08 06:36:57;;;;;;;53.47;36.17;;;;;;;;;;10025401;28;20046;-73
2023/12/08 06:41:49;;;;;;;23.83;20.60;;;;;;;;;;10021933;28;20134;-73
2023/12/08 06:46:42;;;;;;;24.70;22.20;;;;;;;;;;10023319;28;20046;-73
2023/12/08 06:51:35;;;;;;;23.10;20.40;;;;;;;;;;10020437;28;20053;-74
2023/12/08 06:56:27;;;;;;;19.63;15.55;;;;;;;;;;10021532;28;20042;-73
2023/12/08 07:01:19;;;;;;;19.75;17.65;;;;;;;;;;10020187;28;20057;-73
2023/12/08 07:06:10;;;;;;;19.50;17.17;;;;;;;;;;10021030;28;20104;-74
2023/12/08 07:11:03;;;;;;;20.80;18.60;;;;;;;;;;10020507;28;20362;-74
2023/12/08 07:15:54;;;;;;;21.05;18.85;;;;;;;;;;10021224;28;20046;-74
2023/12/08 07:20:46;;;;;;;19.13;16.77;;;;;;;;;;10020364;28;20046;-74
2023/12/08 07:25:38;;;;;;;18.98;16.98;;;;;;;;;;10020504;28;20142;-73
2023/12/08 07:30:30;;;;;;;27.23;16.70;;;;;;;;;;10019747;28;20046;-73
2023/12/08 07:35:22;;;;;;;21.92;16.95;;;;;;;;;;10011733;28;20039;-73
2023/12/08 07:40:14;;;;;;;18.17;15.45;;;;;;;;;;10032274;28;20049;-73
2023/12/08 07:45:10;;;;;;;18.55;16.42;;;;;;;;;;10057976;28;20432;-72
2023/12/08 07:50:02;;;;;;;20.10;18.00;;;;;;;;;;10038824;28;20503;-72
2023/12/08 07:54:54;;;;;;;23.15;20.85;;;;;;;;;;10022062;28;20100;-74
2023/12/08 07:59:47;;;;;;;26.77;20.25;;;;;;;;;;10030823;28;20085;-74
2023/12/08 08:04:41;;;;;;;22.08;19.88;;;;;;;;;;10025581;28;20129;-74
2023/12/08 08:09:33;;;;;;;24.25;20.17;;;;;;;;;;10023406;28;20206;-73
2023/12/08 08:14:25;;;;;;;23.88;19.77;;;;;;;;;;10024334;28;20361;-74
2023/12/08 08:19:16;;;;;;;21.50;19.17;;;;;;;;;;10030409;28;20050;-72
2023/12/08 08:24:08;;;;;;;22.45;19.85;;;;;;;;;;10029775;28;20491;-71
2023/12/08 08:29:01;;;;;;;21.63;19.30;;;;;;;;;;10030915;28;20121;-71
2023/12/08 08:33:52;;;;;;;26.17;19.60;;;;;;;;;;10030055;28;20425;-74
2023/12/08 08:38:44;;;;;;;27.08;20.50;;;;;;;;;;10028612;28;20457;-72
2023/12/08 08:43:36;;;;;;;25.17;21.08;;;;;;;;;;10053886;28;20041;-74
2023/12/08 08:48:28;;;;;;;28.25;23.73;;;;;;;;;;10041445;28;20813;-71
2023/12/08 08:53:21;;;;;;;30.08;22.35;;;;;;;;;;10028694;28;20376;-71
2023/12/08 08:58:13;;;;;;;28.83;22.80;;;;;;;;;;10029577;28;20057;-71
2023/12/08 09:03:04;;;;;;;28.10;23.58;;;;;;;;;;10022770;28;20120;-71
2023/12/08 09:07:56;;;;;;;26.33;22.55;;;;;;;;;;10028814;28;20068;-71
2023/12/08 09:12:48;;;;;;;28.52;24.85;;;;;;;;;;10009213;28;20137;-73
2023/12/08 09:17:41;;;;;;;31.90;24.27;;;;;;;;;;10046969;28;20049;-74
2023/12/08 09:22:34;;;;;;;32.97;27.40;;;;;;;;;;10047918;28;20092;-71
2023/12/08 09:27:25;;;;;;;26.70;23.77;;;;;;;;;;10040291;28;20077;-71
2023/12/08 09:32:19;;;;;;;34.92;27.70;;;;;;;;;;10025277;28;20038;-73
2023/12/08 09:37:11;;;;;;;35.38;25.80;;;;;;;;;;10023147;28;20046;-72
2023/12/08 09:42:35;;;;;;;31.65;26.50;;;;;;;;;;10014153;28;20040;-72
2023/12/08 09:47:29;;;;;;;28.98;23.95;;;;;;;;;;10025345;28;20037;-72
2023/12/08 09:52:22;;;;;;;29.55;24.75;;;;;;;;;;10023190;28;20374;-71
2023/12/08 09:57:15;;;;;;;32.75;26.73;;;;;;;;;;10022360;28;20041;-72
2023/12/08 10:02:07;;;;;;;27.85;22.80;;;;;;;;;;10022884;28;20108;-72
2023/12/08 10:07:02;;;;;;;33.60;25.20;;;;;;;;;;10016602;28;20046;-72
2023/12/08 10:11:53;;;;;;;30.15;23.45;;;;;;;;;;10023239;28;20476;-69
2023/12/08 10:16:46;;;;;;;29.17;22.55;;;;;;;;;;10014955;28;20152;-70
2023/12/08 10:21:39;;;;;;;31.85;24.27;;;;;;;;;;10022896;28;20471;-71
2023/12/08 10:26:31;;;;;;;30.05;22.52;;;;;;;;;;10023838;28;20046;-72
2023/12/08 10:31:26;;;;;;;31.38;25.38;;;;;;;;;;10024183;28;20378;-72
2023/12/08 10:36:21;;;;;;;40.10;32.83;;;;;;;;;;10020483;28;20042;-72
2023/12/08 10:41:22;;;;;;;28.63;25.30;;;;;;;;;;10022953;28;20077;-71
2023/12/08 10:46:15;;;;;;;28.60;25.48;;;;;;;;;;10014349;28;20088;-72
2023/12/08 10:51:13;;;;;;;28.55;24.45;;;;;;;;;;10021637;28;20046;-71
2023/12/08 10:56:16;;;;;;;28.42;25.17;;;;;;;;;;10022099;28;20104;-72
2023/12/08 11:01:12;;;;;;;32.63;26.15;;;;;;;;;;10023147;28;20045;-71
2023/12/08 11:06:38;;;;;;;43.75;35.60;;;;;;;;;;10022825;28;20347;-73
2023/12/08 11:11:32;;;;;;;56.05;42.13;;;;;;;;;;10010199;28;20042;-72
2023/12/08 11:16:32;;;;;;;57.08;44.25;;;;;;;;;;10021565;28;20184;-71
2023/12/08 11:21:24;;;;;;;34.30;29.70;;;;;;;;;;10017764;28;20468;-71
2023/12/08 11:26:36;;;;;;;50.80;38.33;;;;;;;;;;10008746;28;20037;-71
2023/12/08 11:32:04;;;;;;;46.60;38.78;;;;;;;;;;10002492;28;20492;-71
2023/12/08 11:36:58;;;;;;;41.58;35.28;;;;;;;;;;10010890;28;20487;-71
2023/12/08 11:41:52;;;;;;;42.15;37.35;;;;;;;;;;10024056;28;20052;-71
2023/12/08 11:46:44;;;;;;;40.25;35.85;;;;;;;;;;10023818;28;20041;-72
2023/12/08 11:51:36;;;;;;;36.65;31.60;;;;;;;;;;10028478;28;20053;-72
2023/12/08 11:56:45;;;;;;;32.70;29.15;;;;;;;;;;10030023;28;20053;-71
2023/12/08 12:01:41;;;;;;;34.45;29.52;;;;;;;;;;10011408;28;20076;-72
2023/12/08 12:06:33;;;;;;;36.42;32.38;;;;;;;;;;10036433;28;20461;-72
2023/12/08 12:11:27;;;;;;;37.95;32.60;;;;;;;;;;10023333;28;20050;-72
2023/12/08 12:16:27;;;;;;;39.10;31.75;;;;;;;;;;10029351;28;20354;-72
2023/12/08 12:21:19;;;;;;;38.13;34.03;;;;;;;;;;10018086;28;20085;-72
2023/12/08 12:26:13;;;;;;;37.38;33.25;;;;;;;;;;10031626;28;20444;-73
2023/12/08 12:31:05;;;;;;;32.83;29.27;;;;;;;;;;10045014;28;20043;-71
2023/12/08 12:35:57;;;;;;;31.73;28.35;;;;;;;;;;10026160;28;20095;-72
2023/12/08 12:40:53;;;;;;;31.38;28.10;;;;;;;;;;10046291;28;20054;-71
2023/12/08 12:45:45;;;;;;;34.25;29.00;;;;;;;;;;10053996;28;20191;-72
2023/12/08 12:50:51;;;;;;;39.67;34.08;;;;;;;;;;10017481;28;20089;-72
2023/12/08 12:55:45;;;;;;;40.33;35.40;;;;;;;;;;10044815;28;20107;-72
2023/12/08 13:00:39;;;;;;;39.13;34.88;;;;;;;;;;10035909;28;20050;-72
2023/12/08 13:05:31;;;;;;;41.08;36.15;;;;;;;;;;10029870;28;20092;-71
2023/12/08 13:10:23;;;;;;;36.22;32.05;;;;;;;;;;10035064;28;20092;-72
2023/12/08 13:15:17;;;;;;;44.80;39.13;;;;;;;;;;10036129;28;20079;-72
2023/12/08 13:20:10;;;;;;;41.22;36.72;;;;;;;;;;10028922;28;20476;-72
2023/12/08 13:25:02;;;;;;;38.03;33.92;;;;;;;;;;10028854;28;20050;-72
2023/12/08 13:29:54;;;;;;;39.47;34.67;;;;;;;;;;10028334;28;20050;-71
2023/12/08 13:34:46;;;;;;;42.00;37.33;;;;;;;;;;10041425;28;20068;-71
2023/12/08 13:39:38;;;;;;;35.67;30.70;;;;;;;;;;10041150;28;20053;-71
2023/12/08 13:44:29;;;;;;;35.38;30.95;;;;;;;;;;10030614;28;20057;-72
2023/12/08 13:49:22;;;;;;;37.75;33.75;;;;;;;;;;10039035;28;20068;-72
2023/12/08 13:54:14;;;;;;;39.00;34.80;;;;;;;;;;10038055;28;20115;-71
2023/12/08 13:59:05;;;;;;;41.70;37.40;;;;;;;;;;10030724;28;20579;-72
2023/12/08 14:03:57;;;;;;;41.13;35.67;;;;;;;;;;10034586;28;20049;-71
2023/12/08 14:08:53;;;;;;;48.78;40.05;;;;;;;;;;10046171;28;20112;-71
2023/12/08 14:13:45;;;;;;;50.78;41.97;;;;;;;;;;10018246;28;20050;-71
2023/12/08 14:18:37;;;;;;;44.90;39.67;;;;;;;;;;10021263;28;20535;-71
2023/12/08 14:23:29;;;;;;;45.65;37.30;;;;;;;;;;10030827;28;20416;-71
2023/12/08 14:28:21;;;;;;;42.03;37.55;;;;;;;;;;10025104;28;20059;-71
2023/12/08 14:33:14;;;;;;;45.20;37.90;;;;;;;;;;10017800;28;20065;-72
2023/12/08 14:38:06;;;;;;;45.10;38.38;;;;;;;;;;10033522;28;20050;-71
2023/12/08 14:42:58;;;;;;;46.85;37.28;;;;;;;;;;10023680;28;20050;-71
2023/12/08 14:47:50;;;;;;;37.75;33.80;;;;;;;;;;10037005;28;20056;-71
2023/12/08 14:52:42;;;;;;;37.40;33.40;;;;;;;;;;10034859;28;20057;-71
2023/12/08 14:57:33;;;;;;;40.20;32.90;;;;;;;;;;10025520;28;20050;-71
2023/12/08 15:02:25;;;;;;;42.42;37.90;;;;;;;;;;10024282;28;20076;-71
2023/12/08 15:07:17;;;;;;;50.13;41.10;;;;;;;;;;10021912;28;20462;-71
2023/12/08 15:12:09;;;;;;;41.60;36.78;;;;;;;;;;9984443;28;20086;-71
2023/12/08 15:17:01;;;;;;;42.42;36.10;;;;;;;;;;10001179;28;20460;-71
2023/12/08 15:21:59;;;;;;;45.33;36.42;;;;;;;;;;10022495;28;20044;-72
2023/12/08 15:26:51;;;;;;;55.08;38.05;;;;;;;;;;10038956;28;20091;-71
2023/12/08 15:31:43;;;;;;;47.75;38.42;;;;;;;;;;10009364;28;20038;-71
2023/12/08 15:36:34;;;;;;;42.42;35.38;;;;;;;;;;10047641;28;20038;-71
2023/12/08 15:41:26;;;;;;;41.10;36.53;;;;;;;;;;10042876;28;20125;-72
2023/12/08 15:46:18;;;;;;;45.95;37.33;;;;;;;;;;10024834;28;20329;-71
2023/12/08 15:51:13;;;;;;;49.88;40.17;;;;;;;;;;10028410;28;20076;-71
2023/12/08 15:56:05;;;;;;;54.95;43.25;;;;;;;;;;10029270;28;20042;-71
2023/12/08 16:00:57;;;;;;;48.13;39.88;;;;;;;;;;10010062;28;20455;-71
2023/12/08 16:05:49;;;;;;;43.17;38.38;;;;;;;;;;10022430;28;20052;-70
2023/12/08 16:10:41;;;;;;;63.80;48.10;;;;;;;;;;10032391;28;20457;-73
2023/12/08 16:15:33;;;;;;;57.63;48.08;;;;;;;;;;10002679;28;20053;-73
2023/12/08 16:20:25;;;;;;;54.28;48.08;;;;;;;;;;10022269;28;20491;-73
2023/12/08 16:25:17;;;;;;;54.97;46.58;;;;;;;;;;10016233;28;20512;-73
2023/12/08 16:30:09;;;;;;;50.92;40.80;;;;;;;;;;10023418;28;20437;-73
2023/12/08 16:35:02;;;;;;;45.97;39.10;;;;;;;;;;10016124;28;20057;-73
2023/12/08 16:39:54;;;;;;;44.95;40.03;;;;;;;;;;10015448;28;20103;-73
2023/12/08 16:44:47;;;;;;;50.70;39.25;;;;;;;;;;10016332;28;20092;-73
2023/12/08 16:49:39;;;;;;;48.33;43.03;;;;;;;;;;10023646;28;20124;-71
2023/12/08 16:54:31;;;;;;;44.28;39.40;;;;;;;;;;10015169;28;20705;-71
2023/12/08 16:59:23;;;;;;;43.50;38.80;;;;;;;;;;10008600;28;20062;-73
2023/12/08 17:04:18;;;;;;;40.42;35.42;;;;;;;;;;10005567;28;20350;-73
2023/12/08 17:09:10;;;;;;;40.22;36.03;;;;;;;;;;10021299;28;20045;-73
2023/12/08 17:14:01;;;;;;;42.55;36.08;;;;;;;;;;10025431;28;20052;-73
2023/12/08 17:18:53;;;;;;;39.72;34.60;;;;;;;;;;10015806;28;20041;-73
2023/12/08 17:23:45;;;;;;;39.58;32.53;;;;;;;;;;10011650;28;20060;-73
2023/12/08 17:28:37;;;;;;;37.50;30.00;;;;;;;;;;10007025;28;20045;-73
2023/12/08 17:33:29;;;;;;;41.42;33.58;;;;;;;;;;10012285;28;20038;-73
2023/12/08 17:38:21;;;;;;;45.50;37.10;;;;;;;;;;10020413;28;20034;-73
2023/12/08 17:43:13;;;;;;;49.03;36.15;;;;;;;;;;10026299;28;20137;-72
2023/12/08 17:48:06;;;;;;;37.80;30.25;;;;;;;;;;10019773;28;20145;-73
2023/12/08 17:52:58;;;;;;;33.42;29.67;;;;;;;;;;10016125;28;20148;-73
2023/12/08 17:57:50;;;;;;;38.75;31.80;;;;;;;;;;10018989;28;20046;-73
2023/12/08 18:02:42;;;;;;;43.92;37.20;;;;;;;;;;10015469;28;20046;-73
2023/12/08 18:07:34;;;;;;;45.75;36.33;;;;;;;;;;10022946;28;20041;-73
2023/12/08 18:12:27;;;;;;;42.08;35.47;;;;;;;;;;10026387;28;20042;-73
2023/12/08 18:17:20;;;;;;;49.08;38.10;;;;;;;;;;10042766;28;20464;-72
2023/12/08 18:22:12;;;;;;;42.92;36.28;;;;;;;;;;10040635;28;20147;-73
2023/12/08 18:27:04;;;;;;;45.55;35.90;;;;;;;;;;10025501;28;20461;-73
2023/12/08 18:31:57;;;;;;;46.95;36.88;;;;;;;;;;10026362;28;20070;-73
2023/12/08 18:36:49;;;;;;;80.22;53.13;;;;;;;;;;10025312;28;20049;-73
2023/12/08 18:41:41;;;;;;;46.35;35.92;;;;;;;;;;10025243;28;20060;-72
2023/12/08 18:46:33;;;;;;;48.22;38.03;;;;;;;;;;10023272;28;20050;-73
2023/12/08 18:51:27;;;;;;;38.80;31.83;;;;;;;;;;10022685;28;20038;-73
2023/12/08 18:56:20;;;;;;;40.00;33.15;;;;;;;;;;10021806;28;20045;-73
2023/12/08 19:01:12;;;;;;;37.88;31.08;;;;;;;;;;10021532;28;20049;-71
2023/12/08 19:06:04;;;;;;;42.38;33.88;;;;;;;;;;10019542;28;20041;-73
2023/12/08 19:10:56;;;;;;;46.70;41.70;;;;;;;;;;10010990;28;20473;-72
2023/12/08 19:15:48;;;;;;;38.95;33.08;;;;;;;;;;10017860;28;20128;-72
2023/12/08 19:20:43;;;;;;;41.75;32.95;;;;;;;;;;10021399;28;20046;-71
2023/12/08 19:25:35;;;;;;;35.72;30.90;;;;;;;;;;10021422;28;20064;-72
2023/12/08 19:30:27;;;;;;;41.20;33.13;;;;;;;;;;10021719;28;20104;-71
2023/12/08 19:35:20;;;;;;;37.60;31.65;;;;;;;;;;10019151;28;20038;-71
2023/12/08 19:40:12;;;;;;;39.75;33.88;;;;;;;;;;10019648;28;20108;-72
2023/12/08 19:45:05;;;;;;;42.63;34.83;;;;;;;;;;10018921;28;20048;-72
2023/12/08 19:49:57;;;;;;;41.00;33.03;;;;;;;;;;10017912;28;20054;-71
2023/12/08 19:54:49;;;;;;;37.25;30.35;;;;;;;;;;10019375;28;20073;-71
2023/12/08 19:59:41;;;;;;;36.85;31.77;;;;;;;;;;10020378;28;20541;-72
2023/12/08 20:04:33;;;;;;;36.67;31.10;;;;;;;;;;10015071;28;20548;-72
2023/12/08 20:09:25;;;;;;;35.03;30.70;;;;;;;;;;10035643;28;20448;-72
2023/12/08 20:14:17;;;;;;;39.45;31.98;;;;;;;;;;10052782;28;20038;-72
2023/12/08 20:19:09;;;;;;;39.83;32.53;;;;;;;;;;10068473;28;20112;-72
2023/12/08 20:24:01;;;;;;;40.30;34.90;;;;;;;;;;10036052;28;20038;-72
2023/12/08 20:28:54;;;;;;;42.95;35.00;;;;;;;;;;10036969;28;20137;-72
2023/12/08 20:33:47;;;;;;;38.88;31.25;;;;;;;;;;10035864;28;20100;-72
2023/12/08 20:38:39;;;;;;;31.63;28.20;;;;;;;;;;10037584;28;20406;-71
2023/12/08 20:43:31;;;;;;;33.60;28.50;;;;;;;;;;10043902;28;20056;-72
2023/12/08 20:48:24;;;;;;;28.15;23.10;;;;;;;;;;10035579;28;20183;-71
2023/12/08 20:53:16;;;;;;;31.10;25.80;;;;;;;;;;10028597;28;20140;-71
2023/12/08 20:58:08;;;;;;;29.77;24.63;;;;;;;;;;10029455;28;20484;-71
2023/12/08 21:03:00;;;;;;;29.63;24.17;;;;;;;;;;10017008;28;20060;-71
2023/12/08 21:07:52;;;;;;;27.60;24.02;;;;;;;;;;10028384;28;20144;-71
2023/12/08 21:12:44;;;;;;;39.92;32.28;;;;;;;;;;10029330;28;20053;-71
2023/12/08 21:17:37;;;;;;;41.58;34.28;;;;;;;;;;10029412;28;20080;-71
2023/12/08 21:22:29;;;;;;;38.75;33.38;;;;;;;;;;10028512;28;20038;-71
2023/12/08 21:27:22;;;;;;;42.60;35.92;;;;;;;;;;10028638;28;20104;-71
2023/12/08 21:32:14;;;;;;;42.28;34.22;;;;;;;;;;10028737;28;20042;-71
2023/12/08 21:37:06;;;;;;;44.33;37.50;;;;;;;;;;10027674;28;20129;-71
2023/12/08 21:42:00;;;;;;;41.03;35.15;;;;;;;;;;10027990;28;20457;-71
2023/12/08 21:46:55;;;;;;;44.47;36.75;;;;;;;;;;10028397;28;20049;-71
2023/12/08 21:51:47;;;;;;;44.97;37.13;;;;;;;;;;10027415;28;20049;-71
2023/12/08 21:56:38;;;;;;;41.50;33.67;;;;;;;;;;10027212;28;20041;-71
2023/12/08 22:01:30;;;;;;;47.63;38.72;;;;;;;;;;10027562;28;20115;-71
2023/12/08 22:06:22;;;;;;;37.80;32.67;;;;;;;;;;10027127;28;20056;-71
2023/12/08 22:11:14;;;;;;;32.63;27.73;;;;;;;;;;10026177;28;20089;-71
2023/12/08 22:16:06;;;;;;;44.60;29.73;;;;;;;;;;10023642;28;20124;-71
2023/12/08 22:20:58;;;;;;;37.40;29.38;;;;;;;;;;10023180;28;20473;-71
2023/12/08 22:25:50;;;;;;;35.88;28.70;;;;;;;;;;10022808;28;20053;-71
2023/12/08 22:30:42;;;;;;;37.35;29.02;;;;;;;;;;10022907;28;20042;-71
2023/12/08 22:35:33;;;;;;;36.88;30.20;;;;;;;;;;10015882;28;20113;-71
2023/12/08 22:40:25;;;;;;;28.52;24.65;;;;;;;;;;10016403;28;20038;-71
2023/12/08 22:45:17;;;;;;;28.13;23.92;;;;;;;;;;10025058;28;20034;-72
2023/12/08 22:50:10;;;;;;;24.75;21.67;;;;;;;;;;10025428;28;20052;-71
2023/12/08 22:55:02;;;;;;;28.25;25.25;;;;;;;;;;10025785;28;20073;-72
2023/12/08 22:59:53;;;;;;;29.48;26.30;;;;;;;;;;10024835;28;20680;-71
2023/12/08 23:04:45;;;;;;;28.20;23.83;;;;;;;;;;10049773;28;20042;-71
2023/12/08 23:09:37;;;;;;;25.48;21.73;;;;;;;;;;10031951;28;20049;-71
2023/12/08 23:14:29;;;;;;;24.48;21.38;;;;;;;;;;10025902;28;20077;-71
2023/12/08 23:19:21;;;;;;;23.88;20.80;;;;;;;;;;10036811;28;20057;-72
2023/12/08 23:24:13;;;;;;;21.15;18.92;;;;;;;;;;10032895;28;20065;-71
2023/12/08 23:29:05;;;;;;;26.98;22.70;;;;;;;;;;10023562;28;20373;-71
2023/12/08 23:33:57;;;;;;;23.83;20.90;;;;;;;;;;10024618;28;20373;-71
2023/12/08 23:38:49;;;;;;;20.15;17.38;;;;;;;;;;10024425;28;20081;-71
2023/12/08 23:43:41;;;;;;;22.40;19.95;;;;;;;;;;10025121;28;20046;-72
2023/12/08 23:48:33;;;;;;;20.15;17.95;;;;;;;;;;10031815;28;20057;-72
2023/12/08 23:53:25;;;;;;;19.15;17.13;;;;;;;;;;10032193;28;20045;-71
2023/12/08 23:58:17;;;;;;;20.63;18.38;;;;;;;;;;10032301;28;20492;-71
